sensor_id;sensor_type;location;lat;lon;timestamp;temperature;humidity
4090;DHT22;2059;48.538;12.146;2022-11-13T00:01:37;5.90;99.90
4090;DHT22;2059;48.538;12.146;2022-11-13T00:06:39;5.90;99.90
4090;DHT22;2059;48.538;12.146;2022-11-13T00:11:41;5.90;99.90
4090;DHT22;2059;48.538;12.146;2022-11-13T00:16:44;5.90;99.90
4090;DHT22;2059;48.538;12.146;2022-11-13T00:21:46;5.90;99.90
4090;DHT22;2059;48.538;12.146;2022-11-13T00:26:48;6.00;99.90
4090;DHT22;2059;48.538;12.146;2022-11-13T00:31:52;6.10;99.90
4090;DHT22;2059;48.538;12.146;2022-11-13T00:36:54;6.10;99.90
4090;DHT22;2059;48.538;12.146;2022-11-13T00:41:56;6.10;99.90
4090;DHT22;2059;48.538;12.146;2022-11-13T00:46:59;6.10;99.90
4090;DHT22;2059;48.538;12.146;2022-11-13T00:52:01;6.20;99.90
4090;DHT22;2059;48.538;12.146;2022-11-13T00:57:03;6.10;99.90
4090;DHT22;2059;48.538;12.146;2022-11-13T01:02:06;6.10;99.90
4090;DHT22;2059;48.538;12.146;2022-11-13T01:07:09;6.20;99.90
4090;DHT22;2059;48.538;12.146;2022-11-13T01:12:11;6.20;99.90
4090;DHT22;2059;48.538;12.146;2022-11-13T01:17:14;6.10;99.90
4090;DHT22;2059;48.538;12.146;2022-11-13T01:22:16;6.10;99.90
4090;DHT22;2059;48.538;12.146;2022-11-13T01:27:18;6.00;99.90
4090;DHT22;2059;48.538;12.146;2022-11-13T01:32:22;6.10;99.90
4090;DHT22;2059;48.538;12.146;2022-11-13T01:37:24;6.10;99.90
4090;DHT22;2059;48.538;12.146;2022-11-13T01:42:30;6.00;99.90
4090;DHT22;2059;48.538;12.146;2022-11-13T01:47:35;6.10;99.90
4090;DHT22;2059;48.538;12.146;2022-11-13T01:52:40;6.10;99.90
4090;DHT22;2059;48.538;12.146;2022-11-13T01:57:43;6.10;99.90
4090;DHT22;2059;48.538;12.146;2022-11-13T02:02:46;6.00;99.90
4090;DHT22;2059;48.538;12.146;2022-11-13T02:07:48;6.10;99.90
4090;DHT22;2059;48.538;12.146;2022-11-13T02:12:51;6.10;99.90
4090;DHT22;2059;48.538;12.146;2022-11-13T02:17:56;6.00;99.90
4090;DHT22;2059;48.538;12.146;2022-11-13T02:23:04;6.00;99.90
4090;DHT22;2059;48.538;12.146;2022-11-13T02:28:09;5.90;99.90
4090;DHT22;2059;48.538;12.146;2022-11-13T02:33:24;5.70;99.90
4090;DHT22;2059;48.538;12.146;2022-11-13T02:38:26;5.70;99.90
4090;DHT22;2059;48.538;12.146;2022-11-13T02:43:29;5.70;99.90
4090;DHT22;2059;48.538;12.146;2022-11-13T02:48:31;5.80;99.90
4090;DHT22;2059;48.538;12.146;2022-11-13T02:53:33;5.70;99.90
4090;DHT22;2059;48.538;12.146;2022-11-13T02:58:36;5.70;99.90
4090;DHT22;2059;48.538;12.146;2022-11-13T03:03:38;5.70;99.90
4090;DHT22;2059;48.538;12.146;2022-11-13T03:08:40;5.70;99.90
4090;DHT22;2059;48.538;12.146;2022-11-13T03:13:44;5.70;99.90
4090;DHT22;2059;48.538;12.146;2022-11-13T03:18:46;5.60;99.90
4090;DHT22;2059;48.538;12.146;2022-11-13T03:23:48;5.50;99.90
4090;DHT22;2059;48.538;12.146;2022-11-13T03:28:51;5.50;99.90
4090;DHT22;2059;48.538;12.146;2022-11-13T03:33:53;5.50;99.90
4090;DHT22;2059;48.538;12.146;2022-11-13T03:38:55;5.30;99.90
4090;DHT22;2059;48.538;12.146;2022-11-13T03:43:58;5.30;99.90
4090;DHT22;2059;48.538;12.146;2022-11-13T03:49:00;5.40;99.90
4090;DHT22;2059;48.538;12.146;2022-11-13T03:54:02;5.30;99.90
4090;DHT22;2059;48.538;12.146;2022-11-13T03:59:06;5.30;99.90
4090;DHT22;2059;48.538;12.146;2022-11-13T04:04:08;5.30;99.90
4090;DHT22;2059;48.538;12.146;2022-11-13T04:09:10;5.30;99.90
4090;DHT22;2059;48.538;12.146;2022-11-13T04:14:14;5.20;99.90
4090;DHT22;2059;48.538;12.146;2022-11-13T04:19:16;5.20;99.90
4090;DHT22;2059;48.538;12.146;2022-11-13T04:24:18;5.30;99.90
4090;DHT22;2059;48.538;12.146;2022-11-13T04:29:21;5.40;99.90
4090;DHT22;2059;48.538;12.146;2022-11-13T04:34:23;5.30;99.90
4090;DHT22;2059;48.538;12.146;2022-11-13T04:39:26;5.30;99.90
4090;DHT22;2059;48.538;12.146;2022-11-13T04:44:29;5.20;99.90
4090;DHT22;2059;48.538;12.146;2022-11-13T04:49:31;5.20;99.90
4090;DHT22;2059;48.538;12.146;2022-11-13T04:54:33;5.30;99.90
4090;DHT22;2059;48.538;12.146;2022-11-13T04:59:36;5.20;99.90
4090;DHT22;2059;48.538;12.146;2022-11-13T05:04:38;5.10;99.90
4090;DHT22;2059;48.538;12.146;2022-11-13T05:09:40;5.30;99.90
4090;DHT22;2059;48.538;12.146;2022-11-13T05:14:44;5.20;99.90
4090;DHT22;2059;48.538;12.146;2022-11-13T05:19:46;5.20;99.90
4090;DHT22;2059;48.538;12.146;2022-11-13T05:24:48;5.20;99.90
4090;DHT22;2059;48.538;12.146;2022-11-13T05:29:51;5.20;99.90
4090;DHT22;2059;48.538;12.146;2022-11-13T05:34:53;5.20;99.90
4090;DHT22;2059;48.538;12.146;2022-11-13T05:39:55;5.20;99.90
4090;DHT22;2059;48.538;12.146;2022-11-13T05:44:58;5.20;99.90
4090;DHT22;2059;48.538;12.146;2022-11-13T05:50:00;5.20;99.90
4090;DHT22;2059;48.538;12.146;2022-11-13T05:55:02;5.20;99.90
4090;DHT22;2059;48.538;12.146;2022-11-13T06:00:07;5.20;99.90
4090;DHT22;2059;48.538;12.146;2022-11-13T06:05:09;5.30;99.90
4090;DHT22;2059;48.538;12.146;2022-11-13T06:10:11;5.10;99.90
4090;DHT22;2059;48.538;12.146;2022-11-13T06:15:15;5.10;99.90
4090;DHT22;2059;48.538;12.146;2022-11-13T06:20:17;5.10;99.90
4090;DHT22;2059;48.538;12.146;2022-11-13T06:25:19;5.00;99.90
4090;DHT22;2059;48.538;12.146;2022-11-13T06:30:22;4.90;99.90
4090;DHT22;2059;48.538;12.146;2022-11-13T06:35:24;4.90;99.90
4090;DHT22;2059;48.538;12.146;2022-11-13T06:40:26;4.80;99.90
4090;DHT22;2059;48.538;12.146;2022-11-13T06:45:29;4.80;99.90
4090;DHT22;2059;48.538;12.146;2022-11-13T06:50:31;4.70;99.90
4090;DHT22;2059;48.538;12.146;2022-11-13T06:55:33;4.70;99.90
4090;DHT22;2059;48.538;12.146;2022-11-13T07:00:36;4.70;99.90
4090;DHT22;2059;48.538;12.146;2022-11-13T07:05:38;4.80;99.90
4090;DHT22;2059;48.538;12.146;2022-11-13T07:10:40;4.80;99.90
4090;DHT22;2059;48.538;12.146;2022-11-13T07:15:43;4.90;99.90
4090;DHT22;2059;48.538;12.146;2022-11-13T07:20:45;5.00;99.90
4090;DHT22;2059;48.538;12.146;2022-11-13T07:25:47;5.00;99.90
4090;DHT22;2059;48.538;12.146;2022-11-13T07:30:50;5.20;99.90
4090;DHT22;2059;48.538;12.146;2022-11-13T07:35:52;5.30;99.90
4090;DHT22;2059;48.538;12.146;2022-11-13T07:40:57;5.60;99.90
4090;DHT22;2059;48.538;12.146;2022-11-13T07:46:00;5.70;99.90
4090;DHT22;2059;48.538;12.146;2022-11-13T07:51:02;5.80;99.90
4090;DHT22;2059;48.538;12.146;2022-11-13T07:56:05;5.90;99.90
4090;DHT22;2059;48.538;12.146;2022-11-13T08:01:09;6.20;99.90
4090;DHT22;2059;48.538;12.146;2022-11-13T08:06:11;6.40;99.90
4090;DHT22;2059;48.538;12.146;2022-11-13T08:11:13;6.60;99.90
4090;DHT22;2059;48.538;12.146;2022-11-13T08:16:16;6.60;99.90
4090;DHT22;2059;48.538;12.146;2022-11-13T08:21:18;7.00;99.90
4090;DHT22;2059;48.538;12.146;2022-11-13T08:26:21;7.10;99.90
4090;DHT22;2059;48.538;12.146;2022-11-13T08:31:24;7.40;99.90
4090;DHT22;2059;48.538;12.146;2022-11-13T08:36:26;7.50;99.90
4090;DHT22;2059;48.538;12.146;2022-11-13T08:41:28;7.50;99.90
4090;DHT22;2059;48.538;12.146;2022-11-13T08:46:31;7.70;99.90
4090;DHT22;2059;48.538;12.146;2022-11-13T08:51:33;7.70;99.90
4090;DHT22;2059;48.538;12.146;2022-11-13T08:56:35;7.80;99.90
4090;DHT22;2059;48.538;12.146;2022-11-13T09:01:38;8.00;99.90
4090;DHT22;2059;48.538;12.146;2022-11-13T09:06:40;7.50;99.90
4090;DHT22;2059;48.538;12.146;2022-11-13T09:11:41;7.40;99.90
4090;DHT22;2059;48.538;12.146;2022-11-13T09:16:45;7.20;99.90
4090;DHT22;2059;48.538;12.146;2022-11-13T09:21:46;7.10;99.90
4090;DHT22;2059;48.538;12.146;2022-11-13T09:26:48;7.20;99.90
4090;DHT22;2059;48.538;12.146;2022-11-13T09:31:51;6.90;99.90
4090;DHT22;2059;48.538;12.146;2022-11-13T09:36:53;7.00;99.90
4090;DHT22;2059;48.538;12.146;2022-11-13T09:41:58;7.40;99.90
4090;DHT22;2059;48.538;12.146;2022-11-13T09:47:10;7.70;99.90
4090;DHT22;2059;48.538;12.146;2022-11-13T09:52:15;8.40;99.90
4090;DHT22;2059;48.538;12.146;2022-11-13T09:57:25;8.80;99.90
4090;DHT22;2059;48.538;12.146;2022-11-13T10:02:47;9.20;99.90
4090;DHT22;2059;48.538;12.146;2022-11-13T10:07:58;9.50;99.90
4090;DHT22;2059;48.538;12.146;2022-11-13T10:13:04;9.50;99.90
4090;DHT22;2059;48.538;12.146;2022-11-13T10:18:14;9.80;99.90
4090;DHT22;2059;48.538;12.146;2022-11-13T10:23:19;10.30;99.90
4090;DHT22;2059;48.538;12.146;2022-11-13T10:28:23;10.70;99.90
4090;DHT22;2059;48.538;12.146;2022-11-13T10:33:28;10.90;99.90
4090;DHT22;2059;48.538;12.146;2022-11-13T10:38:34;11.00;99.90
4090;DHT22;2059;48.538;12.146;2022-11-13T10:43:53;10.80;99.90
4090;DHT22;2059;48.538;12.146;2022-11-13T10:48:56;10.90;99.90
4090;DHT22;2059;48.538;12.146;2022-11-13T10:53:58;11.30;99.90
4090;DHT22;2059;48.538;12.146;2022-11-13T10:59:02;11.50;99.90
4090;DHT22;2059;48.538;12.146;2022-11-13T11:04:09;11.50;99.90
4090;DHT22;2059;48.538;12.146;2022-11-13T11:09:19;11.80;99.90
4090;DHT22;2059;48.538;12.146;2022-11-13T11:14:24;11.90;99.70
4090;DHT22;2059;48.538;12.146;2022-11-13T11:19:30;12.00;99.80
4090;DHT22;2059;48.538;12.146;2022-11-13T11:24:36;12.20;99.60
4090;DHT22;2059;48.538;12.146;2022-11-13T11:29:43;12.30;99.90
4090;DHT22;2059;48.538;12.146;2022-11-13T11:34:55;12.50;99.60
4090;DHT22;2059;48.538;12.146;2022-11-13T11:40:04;12.70;99.70
4090;DHT22;2059;48.538;12.146;2022-11-13T11:45:13;13.00;99.30
4090;DHT22;2059;48.538;12.146;2022-11-13T11:50:29;13.30;99.10
4090;DHT22;2059;48.538;12.146;2022-11-13T11:56:00;13.40;98.90
4090;DHT22;2059;48.538;12.146;2022-11-13T12:01:06;13.60;99.10
4090;DHT22;2059;48.538;12.146;2022-11-13T12:06:17;13.70;98.80
4090;DHT22;2059;48.538;12.146;2022-11-13T12:11:27;14.00;99.10
4090;DHT22;2059;48.538;12.146;2022-11-13T12:16:38;14.10;98.50
4090;DHT22;2059;48.538;12.146;2022-11-13T12:21:50;14.30;98.40
4090;DHT22;2059;48.538;12.146;2022-11-13T12:27:05;14.30;98.40
4090;DHT22;2059;48.538;12.146;2022-11-13T12:32:23;14.30;98.20
4090;DHT22;2059;48.538;12.146;2022-11-13T12:37:33;14.30;98.50
4090;DHT22;2059;48.538;12.146;2022-11-13T12:42:43;14.50;98.60
4090;DHT22;2059;48.538;12.146;2022-11-13T12:47:47;14.60;98.50
4090;DHT22;2059;48.538;12.146;2022-11-13T12:53:00;14.80;98.20
4090;DHT22;2059;48.538;12.146;2022-11-13T12:58:08;14.70;98.50
4090;DHT22;2059;48.538;12.146;2022-11-13T13:03:26;14.70;98.00
4090;DHT22;2059;48.538;12.146;2022-11-13T13:08:44;14.80;98.30
4090;DHT22;2059;48.538;12.146;2022-11-13T13:13:52;14.70;98.50
4090;DHT22;2059;48.538;12.146;2022-11-13T13:19:07;14.60;98.20
4090;DHT22;2059;48.538;12.146;2022-11-13T13:24:33;14.60;98.20
4090;DHT22;2059;48.538;12.146;2022-11-13T13:29:39;14.60;98.10
4090;DHT22;2059;48.538;12.146;2022-11-13T13:34:53;14.50;97.90
4090;DHT22;2059;48.538;12.146;2022-11-13T13:40:14;14.60;97.70
4090;DHT22;2059;48.538;12.146;2022-11-13T13:45:26;14.70;97.70
4090;DHT22;2059;48.538;12.146;2022-11-13T13:50:33;14.60;96.40
4090;DHT22;2059;48.538;12.146;2022-11-13T13:55:44;14.50;96.70
4090;DHT22;2059;48.538;12.146;2022-11-13T14:00:55;14.50;96.50
4090;DHT22;2059;48.538;12.146;2022-11-13T14:06:07;14.40;96.80
4090;DHT22;2059;48.538;12.146;2022-11-13T14:11:22;14.50;96.30
4090;DHT22;2059;48.538;12.146;2022-11-13T14:16:26;14.40;96.40
4090;DHT22;2059;48.538;12.146;2022-11-13T14:21:28;14.40;96.10
4090;DHT22;2059;48.538;12.146;2022-11-13T14:26:31;14.20;96.60
4090;DHT22;2059;48.538;12.146;2022-11-13T14:31:34;14.10;96.40
4090;DHT22;2059;48.538;12.146;2022-11-13T14:36:37;14.10;96.20
4090;DHT22;2059;48.538;12.146;2022-11-13T14:41:46;14.10;96.00
4090;DHT22;2059;48.538;12.146;2022-11-13T14:46:58;13.90;96.30
4090;DHT22;2059;48.538;12.146;2022-11-13T14:52:01;13.70;96.60
4090;DHT22;2059;48.538;12.146;2022-11-13T14:57:08;13.60;96.90
4090;DHT22;2059;48.538;12.146;2022-11-13T15:02:11;13.40;97.10
4090;DHT22;2059;48.538;12.146;2022-11-13T15:07:25;13.40;96.50
4090;DHT22;2059;48.538;12.146;2022-11-13T15:12:29;13.30;96.60
4090;DHT22;2059;48.538;12.146;2022-11-13T15:17:31;13.20;96.60
4090;DHT22;2059;48.538;12.146;2022-11-13T15:22:33;13.20;96.40
4090;DHT22;2059;48.538;12.146;2022-11-13T15:27:36;13.00;96.80
4090;DHT22;2059;48.538;12.146;2022-11-13T15:32:38;13.10;96.80
4090;DHT22;2059;48.538;12.146;2022-11-13T15:37:40;12.90;96.90
4090;DHT22;2059;48.538;12.146;2022-11-13T15:42:44;12.80;96.90
4090;DHT22;2059;48.538;12.146;2022-11-13T15:47:46;12.50;96.90
4090;DHT22;2059;48.538;12.146;2022-11-13T15:52:49;12.50;97.30
4090;DHT22;2059;48.538;12.146;2022-11-13T15:57:53;12.50;97.50
4090;DHT22;2059;48.538;12.146;2022-11-13T16:02:56;12.30;97.40
4090;DHT22;2059;48.538;12.146;2022-11-13T16:07:57;12.20;97.40
4090;DHT22;2059;48.538;12.146;2022-11-13T16:13:01;12.20;97.40
4090;DHT22;2059;48.538;12.146;2022-11-13T16:18:03;12.30;97.20
4090;DHT22;2059;48.538;12.146;2022-11-13T16:23:07;12.10;97.50
4090;DHT22;2059;48.538;12.146;2022-11-13T16:28:13;12.00;97.80
4090;DHT22;2059;48.538;12.146;2022-11-13T16:33:16;11.90;97.70
4090;DHT22;2059;48.538;12.146;2022-11-13T16:38:17;11.90;97.70
4090;DHT22;2059;48.538;12.146;2022-11-13T16:43:21;11.90;97.90
4090;DHT22;2059;48.538;12.146;2022-11-13T16:48:22;11.90;98.00
4090;DHT22;2059;48.538;12.146;2022-11-13T16:53:24;11.80;97.90
4090;DHT22;2059;48.538;12.146;2022-11-13T16:58:27;11.70;98.00
4090;DHT22;2059;48.538;12.146;2022-11-13T17:03:29;11.70;98.00
4090;DHT22;2059;48.538;12.146;2022-11-13T17:08:31;11.70;98.10
4090;DHT22;2059;48.538;12.146;2022-11-13T17:13:34;11.60;98.30
4090;DHT22;2059;48.538;12.146;2022-11-13T17:18:36;11.40;98.30
4090;DHT22;2059;48.538;12.146;2022-11-13T17:23:38;11.40;98.10
4090;DHT22;2059;48.538;12.146;2022-11-13T17:28:41;11.40;98.20
4090;DHT22;2059;48.538;12.146;2022-11-13T17:33:43;11.50;98.20
4090;DHT22;2059;48.538;12.146;2022-11-13T17:38:44;11.40;98.30
4090;DHT22;2059;48.538;12.146;2022-11-13T17:43:48;11.40;98.10
4090;DHT22;2059;48.538;12.146;2022-11-13T17:48:49;11.30;98.20
4090;DHT22;2059;48.538;12.146;2022-11-13T17:53:51;11.30;98.40
4090;DHT22;2059;48.538;12.146;2022-11-13T17:58:54;11.40;98.20
4090;DHT22;2059;48.538;12.146;2022-11-13T18:03:56;11.20;98.30
4090;DHT22;2059;48.538;12.146;2022-11-13T18:08:59;11.20;98.20
4090;DHT22;2059;48.538;12.146;2022-11-13T18:14:02;11.10;98.20
4090;DHT22;2059;48.538;12.146;2022-11-13T18:19:04;11.10;98.40
4090;DHT22;2059;48.538;12.146;2022-11-13T18:24:11;11.20;98.40
4090;DHT22;2059;48.538;12.146;2022-11-13T18:29:15;11.10;98.30
4090;DHT22;2059;48.538;12.146;2022-11-13T18:34:16;11.10;98.60
4090;DHT22;2059;48.538;12.146;2022-11-13T18:39:18;11.00;98.60
4090;DHT22;2059;48.538;12.146;2022-11-13T18:44:21;11.00;98.50
4090;DHT22;2059;48.538;12.146;2022-11-13T18:49:23;11.00;98.70
4090;DHT22;2059;48.538;12.146;2022-11-13T18:54:25;11.00;98.70
4090;DHT22;2059;48.538;12.146;2022-11-13T18:59:28;10.90;98.80
4090;DHT22;2059;48.538;12.146;2022-11-13T19:04:33;10.80;98.80
4090;DHT22;2059;48.538;12.146;2022-11-13T19:09:35;10.60;99.20
4090;DHT22;2059;48.538;12.146;2022-11-13T19:14:41;10.60;99.30
4090;DHT22;2059;48.538;12.146;2022-11-13T19:19:42;10.50;99.40
4090;DHT22;2059;48.538;12.146;2022-11-13T19:29:48;10.60;99.40
4090;DHT22;2059;48.538;12.146;2022-11-13T19:34:50;10.60;99.40
4090;DHT22;2059;48.538;12.146;2022-11-13T19:39:52;10.50;99.60
4090;DHT22;2059;48.538;12.146;2022-11-13T19:44:56;10.50;99.60
4090;DHT22;2059;48.538;12.146;2022-11-13T19:49:58;10.40;99.70
4090;DHT22;2059;48.538;12.146;2022-11-13T19:55:00;10.40;99.70
4090;DHT22;2059;48.538;12.146;2022-11-13T20:00:04;10.40;99.70
4090;DHT22;2059;48.538;12.146;2022-11-13T20:05:06;10.30;99.60
4090;DHT22;2059;48.538;12.146;2022-11-13T20:10:09;10.30;99.60
4090;DHT22;2059;48.538;12.146;2022-11-13T20:15:12;10.30;99.60
4090;DHT22;2059;48.538;12.146;2022-11-13T20:20:14;10.20;99.60
4090;DHT22;2059;48.538;12.146;2022-11-13T20:25:16;10.20;99.60
4090;DHT22;2059;48.538;12.146;2022-11-13T20:30:19;10.10;99.80
4090;DHT22;2059;48.538;12.146;2022-11-13T20:35:21;10.00;99.70
4090;DHT22;2059;48.538;12.146;2022-11-13T20:40:23;9.90;99.90
4090;DHT22;2059;48.538;12.146;2022-11-13T20:45:26;9.90;99.90
4090;DHT22;2059;48.538;12.146;2022-11-13T20:50:28;9.80;99.90
4090;DHT22;2059;48.538;12.146;2022-11-13T20:55:30;9.80;99.90
4090;DHT22;2059;48.538;12.146;2022-11-13T21:00:33;9.90;99.90
4090;DHT22;2059;48.538;12.146;2022-11-13T21:05:35;9.90;99.90
4090;DHT22;2059;48.538;12.146;2022-11-13T21:10:36;9.80;99.90
4090;DHT22;2059;48.538;12.146;2022-11-13T21:15:40;9.80;99.90
4090;DHT22;2059;48.538;12.146;2022-11-13T21:20:42;9.70;99.90
4090;DHT22;2059;48.538;12.146;2022-11-13T21:25:44;9.70;99.90
4090;DHT22;2059;48.538;12.146;2022-11-13T21:30:47;9.60;99.90
4090;DHT22;2059;48.538;12.146;2022-11-13T21:35:49;9.70;99.90
4090;DHT22;2059;48.538;12.146;2022-11-13T21:40:58;9.60;99.90
4090;DHT22;2059;48.538;12.146;2022-11-13T21:46:15;9.50;99.90
4090;DHT22;2059;48.538;12.146;2022-11-13T21:51:17;9.50;99.90
4090;DHT22;2059;48.538;12.146;2022-11-13T21:56:19;9.50;99.90
4090;DHT22;2059;48.538;12.146;2022-11-13T22:01:23;9.50;99.90
4090;DHT22;2059;48.538;12.146;2022-11-13T22:06:27;9.40;99.90
4090;DHT22;2059;48.538;12.146;2022-11-13T22:11:31;9.40;99.90
4090;DHT22;2059;48.538;12.146;2022-11-13T22:16:36;9.50;99.90
4090;DHT22;2059;48.538;12.146;2022-11-13T22:21:39;9.30;99.90
4090;DHT22;2059;48.538;12.146;2022-11-13T22:26:42;9.20;99.90
4090;DHT22;2059;48.538;12.146;2022-11-13T22:31:47;9.10;99.90
4090;DHT22;2059;48.538;12.146;2022-11-13T22:36:49;9.10;99.90
4090;DHT22;2059;48.538;12.146;2022-11-13T22:41:51;8.90;99.90
4090;DHT22;2059;48.538;12.146;2022-11-13T22:46:54;8.90;99.90
4090;DHT22;2059;48.538;12.146;2022-11-13T22:51:56;8.80;99.90
4090;DHT22;2059;48.538;12.146;2022-11-13T22:56:58;8.70;99.90
4090;DHT22;2059;48.538;12.146;2022-11-13T23:02:04;8.70;99.90
4090;DHT22;2059;48.538;12.146;2022-11-13T23:07:06;8.60;99.90
4090;DHT22;2059;48.538;12.146;2022-11-13T23:12:08;8.60;99.90
4090;DHT22;2059;48.538;12.146;2022-11-13T23:17:11;8.50;99.90
4090;DHT22;2059;48.538;12.146;2022-11-13T23:22:13;8.50;99.90
4090;DHT22;2059;48.538;12.146;2022-11-13T23:27:15;8.50;99.90
4090;DHT22;2059;48.538;12.146;2022-11-13T23:32:18;8.30;99.90
4090;DHT22;2059;48.538;12.146;2022-11-13T23:37:20;8.10;99.90
4090;DHT22;2059;48.538;12.146;2022-11-13T23:42:22;8.10;99.90
4090;DHT22;2059;48.538;12.146;2022-11-13T23:47:25;7.90;99.90
4090;DHT22;2059;48.538;12.146;2022-11-13T23:52:27;7.80;99.90
4090;DHT22;2059;48.538;12.146;2022-11-13T23:57:29;7.50;99.90
